Time;durP1;ratioP1;P1;durP2;ratioP2;P2;SDS_P1;SDS_P2;PMS_P1;PMS_P2;Temp;Humidity;BMP_temperature;BMP_pressure;BME280_temperature;BME280_humidity;BME280_pressure;Samples;Min_cycle;Max_cycle;Signal;HPM_P1;HPM_P2
2023/12/21 00:00:34;;;;;;;0.65;0.57;;;;;;;;;;5097602;28;20196;-65
2023/12/21 00:03:01;;;;;;;0.50;0.50;;;;;;;;;;5097684;28;20203;-67
2023/12/21 00:05:29;;;;;;;0.50;0.40;;;;;;;;;;5097214;28;20207;-65
2023/12/21 00:07:56;;;;;;;0.60;0.60;;;;;;;;;;5097182;28;20227;-66
2023/12/21 00:10:25;;;;;;;0.50;0.50;;;;;;;;;;5097687;28;20239;-65
2023/12/21 00:12:53;;;;;;;0.40;0.40;;;;;;;;;;5097424;28;20207;-65
2023/12/21 00:15:20;;;;;;;1.48;0.60;;;;;;;;;;5097209;28;20573;-65
2023/12/21 00:17:48;;;;;;;0.40;0.40;;;;;;;;;;5098007;28;20211;-65
2023/12/21 00:20:16;;;;;;;0.40;0.40;;;;;;;;;;5097419;28;20603;-66
2023/12/21 00:22:43;;;;;;;0.50;0.50;;;;;;;;;;5097739;28;20204;-66
2023/12/21 00:25:11;;;;;;;0.47;0.47;;;;;;;;;;5097124;28;20303;-65
2023/12/21 00:27:40;;;;;;;0.60;0.50;;;;;;;;;;5097278;28;20277;-65
2023/12/21 00:30:09;;;;;;;0.50;0.50;;;;;;;;;;5097512;28;20216;-66
2023/12/21 00:32:36;;;;;;;0.50;0.50;;;;;;;;;;5097172;28;20203;-65
2023/12/21 00:35:04;;;;;;;0.40;0.40;;;;;;;;;;5097286;28;20212;-65
2023/12/21 00:37:36;;;;;;;0.50;0.50;;;;;;;;;;5097473;28;20200;-65
2023/12/21 00:40:04;;;;;;;0.40;0.40;;;;;;;;;;5097056;28;20211;-65
2023/12/21 00:42:32;;;;;;;0.60;0.60;;;;;;;;;;5097359;28;20218;-66
2023/12/21 00:45:01;;;;;;;0.50;0.50;;;;;;;;;;5097221;28;20204;-65
2023/12/21 00:47:29;;;;;;;0.50;0.50;;;;;;;;;;5096463;28;20207;-66
2023/12/21 00:49:57;;;;;;;0.65;0.65;;;;;;;;;;5098849;28;20204;-66
2023/12/21 00:52:24;;;;;;;0.63;0.50;;;;;;;;;;5100851;28;20298;-66
2023/12/21 00:54:52;;;;;;;0.65;0.45;;;;;;;;;;5101374;28;20211;-66
2023/12/21 00:57:20;;;;;;;0.88;0.60;;;;;;;;;;5099828;28;20214;-65
2023/12/21 00:59:47;;;;;;;0.50;0.50;;;;;;;;;;5100257;28;20202;-65
2023/12/21 01:02:16;;;;;;;0.50;0.50;;;;;;;;;;5100556;28;20336;-65
2023/12/21 01:04:43;;;;;;;0.50;0.43;;;;;;;;;;5100523;28;20302;-66
2023/12/21 01:07:11;;;;;;;0.47;0.47;;;;;;;;;;5100060;28;20214;-65
2023/12/21 01:09:39;;;;;;;0.50;0.50;;;;;;;;;;5100077;28;20235;-66
2023/12/21 01:12:07;;;;;;;0.45;0.45;;;;;;;;;;5100450;28;20460;-65
2023/12/21 01:14:34;;;;;;;0.35;0.30;;;;;;;;;;5100166;28;20211;-65
2023/12/21 01:17:02;;;;;;;0.47;0.43;;;;;;;;;;5100045;28;20223;-66
2023/12/21 01:19:31;;;;;;;0.35;0.35;;;;;;;;;;5100304;28;20257;-65
2023/12/21 01:21:59;;;;;;;0.40;0.40;;;;;;;;;;5099956;28;20247;-65
2023/12/21 01:24:27;;;;;;;0.57;0.50;;;;;;;;;;5100150;28;20210;-65
2023/12/21 01:26:54;;;;;;;0.40;0.40;;;;;;;;;;5100103;28;20597;-66
2023/12/21 01:29:22;;;;;;;0.45;0.45;;;;;;;;;;5100161;28;20685;-65
2023/12/21 01:31:49;;;;;;;0.40;0.40;;;;;;;;;;5100037;28;20401;-65
2023/12/21 01:34:17;;;;;;;0.40;0.40;;;;;;;;;;5099947;28;20210;-65
2023/12/21 01:36:46;;;;;;;0.65;0.50;;;;;;;;;;5100017;28;20203;-66
2023/12/21 01:39:14;;;;;;;0.40;0.40;;;;;;;;;;5099591;28;20545;-65
2023/12/21 01:41:42;;;;;;;0.38;0.38;;;;;;;;;;5100058;28;20203;-65
2023/12/21 01:44:09;;;;;;;0.40;0.40;;;;;;;;;;5099786;28;20368;-66
2023/12/21 01:46:37;;;;;;;0.40;0.40;;;;;;;;;;5099636;28;20204;-67
2023/12/21 01:49:05;;;;;;;0.40;0.40;;;;;;;;;;5099736;28;20228;-65
2023/12/21 01:51:34;;;;;;;0.55;0.55;;;;;;;;;;5099958;28;20262;-66
2023/12/21 01:54:03;;;;;;;0.40;0.40;;;;;;;;;;5099394;28;20609;-65
2023/12/21 01:56:31;;;;;;;0.40;0.40;;;;;;;;;;5099412;28;20214;-66
2023/12/21 01:58:58;;;;;;;0.38;0.32;;;;;;;;;;5099323;28;20228;-66
2023/12/21 02:01:27;;;;;;;0.40;0.40;;;;;;;;;;5098479;28;20654;-65
2023/12/21 02:03:55;;;;;;;1.05;0.40;;;;;;;;;;5099605;28;20549;-65
2023/12/21 02:06:22;;;;;;;0.30;0.30;;;;;;;;;;5099093;28;20203;-65
2023/12/21 02:08:50;;;;;;;0.20;0.20;;;;;;;;;;5099055;28;20235;-65
2023/12/21 02:11:19;;;;;;;0.30;0.30;;;;;;;;;;5099119;28;20225;-66
2023/12/21 02:13:46;;;;;;;0.40;0.40;;;;;;;;;;5099349;28;20203;-67
2023/12/21 02:16:18;;;;;;;0.90;0.43;;;;;;;;;;5098919;28;20203;-65
2023/12/21 02:18:45;;;;;;;0.40;0.30;;;;;;;;;;5099256;28;20294;-65
2023/12/21 02:21:13;;;;;;;0.38;0.25;;;;;;;;;;5098897;28;20269;-65
2023/12/21 02:23:42;;;;;;;0.40;0.40;;;;;;;;;;5099081;28;20234;-65
2023/12/21 02:26:13;;;;;;;0.40;0.40;;;;;;;;;;5098776;28;20208;-65
2023/12/21 02:28:40;;;;;;;0.32;0.30;;;;;;;;;;5098498;28;20237;-65
2023/12/21 02:31:08;;;;;;;0.30;0.30;;;;;;;;;;5098569;28;20213;-65
2023/12/21 02:33:35;;;;;;;0.47;0.47;;;;;;;;;;5098330;28;20577;-65
2023/12/21 02:36:04;;;;;;;0.40;0.40;;;;;;;;;;5098542;28;20203;-65
2023/12/21 02:38:31;;;;;;;0.50;0.40;;;;;;;;;;5098543;28;20566;-65
2023/12/21 02:40:59;;;;;;;0.65;0.50;;;;;;;;;;5098325;28;20269;-65
2023/12/21 02:43:28;;;;;;;0.47;0.30;;;;;;;;;;5098463;28;20243;-67
2023/12/21 02:45:56;;;;;;;0.40;0.35;;;;;;;;;;5098688;28;20298;-65
2023/12/21 02:48:23;;;;;;;0.50;0.13;;;;;;;;;;5097831;28;20220;-65
2023/12/21 02:50:51;;;;;;;0.35;0.35;;;;;;;;;;5098192;28;20211;-65
2023/12/21 02:53:18;;;;;;;0.40;0.40;;;;;;;;;;5098225;28;20203;-65
2023/12/21 02:55:46;;;;;;;0.30;0.30;;;;;;;;;;5098717;28;20269;-67
2023/12/21 02:58:13;;;;;;;0.30;0.30;;;;;;;;;;5098112;28;20224;-65
2023/12/21 03:00:42;;;;;;;0.35;0.30;;;;;;;;;;5098254;28;20204;-65
2023/12/21 03:03:09;;;;;;;0.30;0.30;;;;;;;;;;5097866;28;20226;-67
2023/12/21 03:05:37;;;;;;;0.32;0.30;;;;;;;;;;5098192;28;20211;-65
2023/12/21 03:08:05;;;;;;;0.55;0.40;;;;;;;;;;5097910;28;20239;-65
2023/12/21 03:10:32;;;;;;;0.95;0.40;;;;;;;;;;5097908;28;20286;-65
2023/12/21 03:13:00;;;;;;;0.20;0.20;;;;;;;;;;5097584;28;20796;-66
2023/12/21 03:15:28;;;;;;;0.40;0.30;;;;;;;;;;5097623;28;20286;-65
2023/12/21 03:17:57;;;;;;;0.40;0.30;;;;;;;;;;5097638;28;20250;-65
2023/12/21 03:20:24;;;;;;;0.30;0.30;;;;;;;;;;5098143;28;20210;-65
2023/12/21 03:22:52;;;;;;;0.40;0.30;;;;;;;;;;5098013;28;20204;-65
2023/12/21 03:25:19;;;;;;;0.68;0.30;;;;;;;;;;5097456;28;20204;-65
2023/12/21 03:27:47;;;;;;;0.57;0.30;;;;;;;;;;5097873;28;20269;-66
2023/12/21 03:30:15;;;;;;;0.43;0.30;;;;;;;;;;5097336;28;20234;-65
2023/12/21 03:32:43;;;;;;;0.28;0.28;;;;;;;;;;5096999;28;20204;-65
2023/12/21 03:35:12;;;;;;;0.40;0.30;;;;;;;;;;5097384;28;20527;-65
2023/12/21 03:37:40;;;;;;;0.25;0.25;;;;;;;;;;5097810;28;20207;-65
2023/12/21 03:40:09;;;;;;;0.30;0.30;;;;;;;;;;5097430;28;20207;-65
2023/12/21 03:42:36;;;;;;;0.30;0.30;;;;;;;;;;5097780;28;20290;-65
2023/12/21 03:45:04;;;;;;;0.60;0.20;;;;;;;;;;5097758;28;20242;-65
2023/12/21 03:47:32;;;;;;;0.30;0.30;;;;;;;;;;5097543;28;20203;-65
2023/12/21 03:49:59;;;;;;;0.43;0.32;;;;;;;;;;5097428;28;20284;-65
2023/12/21 03:52:28;;;;;;;0.30;0.30;;;;;;;;;;5097628;28;20204;-65
2023/12/21 03:54:56;;;;;;;0.22;0.20;;;;;;;;;;5096991;28;20243;-65
2023/12/21 03:57:23;;;;;;;0.30;0.30;;;;;;;;;;5096230;28;20265;-65
2023/12/21 03:59:51;;;;;;;0.22;0.20;;;;;;;;;;5097167;28;20712;-65
2023/12/21 04:02:18;;;;;;;0.30;0.30;;;;;;;;;;5097649;28;20204;-65
2023/12/21 04:04:46;;;;;;;0.30;0.30;;;;;;;;;;5097512;28;20302;-65
2023/12/21 04:07:13;;;;;;;0.40;0.40;;;;;;;;;;5097081;28;20208;-65
2023/12/21 04:09:43;;;;;;;0.30;0.30;;;;;;;;;;5096668;28;20503;-67
2023/12/21 04:12:10;;;;;;;0.85;0.30;;;;;;;;;;5096832;28;20204;-65
2023/12/21 04:14:38;;;;;;;0.30;0.30;;;;;;;;;;5097341;28;20231;-65
2023/12/21 04:17:05;;;;;;;0.30;0.30;;;;;;;;;;5097430;28;20204;-65
2023/12/21 04:19:33;;;;;;;0.30;0.30;;;;;;;;;;5096828;28;20200;-65
2023/12/21 04:22:01;;;;;;;0.30;0.20;;;;;;;;;;5097097;28;20204;-65
2023/12/21 04:24:28;;;;;;;0.20;0.20;;;;;;;;;;5098052;28;20261;-65
2023/12/21 04:26:57;;;;;;;0.80;0.30;;;;;;;;;;5101178;28;20215;-65
2023/12/21 04:29:25;;;;;;;0.28;0.28;;;;;;;;;;5101207;28;20240;-65
2023/12/21 04:31:52;;;;;;;0.40;0.30;;;;;;;;;;5101057;28;20211;-65
2023/12/21 04:34:20;;;;;;;0.20;0.20;;;;;;;;;;5101104;28;20541;-65
2023/12/21 04:36:47;;;;;;;0.20;0.20;;;;;;;;;;5100946;28;20306;-65
2023/12/21 04:39:15;;;;;;;0.20;0.20;;;;;;;;;;5100265;28;20295;-65
2023/12/21 04:41:42;;;;;;;0.30;0.30;;;;;;;;;;5099911;28;20204;-65
2023/12/21 04:44:11;;;;;;;0.20;0.20;;;;;;;;;;5099658;28;20268;-65
2023/12/21 04:46:39;;;;;;;0.20;0.20;;;;;;;;;;5100226;28;20203;-65
2023/12/21 04:49:06;;;;;;;0.30;0.28;;;;;;;;;;5100789;28;20479;-65
2023/12/21 04:51:34;;;;;;;0.38;0.38;;;;;;;;;;5100613;28;20204;-65
2023/12/21 04:54:02;;;;;;;0.20;0.20;;;;;;;;;;5100249;28;20211;-65
2023/12/21 04:56:29;;;;;;;0.20;0.20;;;;;;;;;;5100535;28;20212;-65
2023/12/21 04:58:57;;;;;;;0.20;0.20;;;;;;;;;;5099824;28;20239;-65
2023/12/21 05:01:25;;;;;;;0.20;0.20;;;;;;;;;;5100591;28;20531;-65
2023/12/21 05:03:53;;;;;;;0.20;0.20;;;;;;;;;;5099938;28;20207;-67
2023/12/21 05:06:20;;;;;;;0.30;0.30;;;;;;;;;;5099320;28;20203;-67
2023/12/21 05:08:48;;;;;;;0.20;0.20;;;;;;;;;;5099797;28;20203;-65
2023/12/21 05:11:15;;;;;;;0.20;0.20;;;;;;;;;;5100085;28;20598;-65
2023/12/21 05:13:42;;;;;;;0.20;0.20;;;;;;;;;;5099774;28;20203;-65
2023/12/21 05:16:09;;;;;;;0.20;0.20;;;;;;;;;;5100005;28;20215;-65
2023/12/21 05:18:39;;;;;;;0.20;0.20;;;;;;;;;;5099225;28;20235;-65
2023/12/21 05:21:09;;;;;;;0.20;0.20;;;;;;;;;;5099011;28;20585;-65
2023/12/21 05:23:36;;;;;;;0.35;0.20;;;;;;;;;;5098974;28;20204;-65
2023/12/21 05:26:04;;;;;;;0.47;0.30;;;;;;;;;;5098506;28;20207;-65
2023/12/21 05:28:31;;;;;;;0.30;0.20;;;;;;;;;;5098757;28;20222;-65
2023/12/21 05:30:59;;;;;;;0.30;0.30;;;;;;;;;;5098807;28;20232;-65
2023/12/21 05:33:26;;;;;;;0.20;0.20;;;;;;;;;;5098671;28;20204;-65
2023/12/21 05:35:55;;;;;;;0.45;0.20;;;;;;;;;;5098853;28;20203;-65
2023/12/21 05:38:22;;;;;;;0.20;0.20;;;;;;;;;;5099244;28;20219;-65
2023/12/21 05:40:49;;;;;;;0.43;0.30;;;;;;;;;;5098596;28;20269;-65
2023/12/21 05:43:17;;;;;;;0.30;0.30;;;;;;;;;;5098381;28;20210;-65
2023/12/21 05:45:44;;;;;;;0.30;0.30;;;;;;;;;;5098545;28;20203;-65
2023/12/21 05:48:12;;;;;;;0.20;0.20;;;;;;;;;;5098528;28;20611;-65
2023/12/21 05:50:39;;;;;;;0.30;0.22;;;;;;;;;;5098061;28;20224;-65
2023/12/21 05:53:08;;;;;;;0.20;0.20;;;;;;;;;;5097478;28;20214;-65
2023/12/21 05:55:35;;;;;;;0.20;0.20;;;;;;;;;;5097497;28;20203;-65
2023/12/21 05:58:02;;;;;;;0.30;0.30;;;;;;;;;;5097110;28;20228;-65
2023/12/21 06:00:30;;;;;;;0.30;0.30;;;;;;;;;;5097042;28;20203;-65
2023/12/21 06:02:57;;;;;;;0.68;0.30;;;;;;;;;;5097164;28;20242;-65
2023/12/21 06:05:24;;;;;;;0.30;0.28;;;;;;;;;;5096855;28;20223;-67
2023/12/21 06:07:52;;;;;;;0.30;0.30;;;;;;;;;;5096996;28;20212;-67
2023/12/21 06:10:21;;;;;;;0.30;0.20;;;;;;;;;;5093765;28;20216;-65
2023/12/21 06:12:48;;;;;;;0.22;0.20;;;;;;;;;;5077012;28;20205;-65
2023/12/21 06:15:17;;;;;;;0.25;0.25;;;;;;;;;;5076416;28;20606;-66
2023/12/21 06:17:44;;;;;;;0.25;0.25;;;;;;;;;;5076467;28;20258;-65
2023/12/21 06:20:12;;;;;;;0.20;0.20;;;;;;;;;;5076529;28;20861;-65
2023/12/21 06:22:39;;;;;;;0.28;0.28;;;;;;;;;;5076837;28;20203;-65
2023/12/21 06:25:07;;;;;;;0.20;0.20;;;;;;;;;;5076630;28;20231;-65
2023/12/21 06:27:36;;;;;;;0.20;0.20;;;;;;;;;;5077150;28;20211;-65
2023/12/21 06:30:04;;;;;;;0.30;0.30;;;;;;;;;;5076139;28;20235;-65
2023/12/21 06:32:32;;;;;;;0.30;0.30;;;;;;;;;;5076727;28;20526;-65
2023/12/21 06:35:00;;;;;;;0.22;0.22;;;;;;;;;;5076666;28;20701;-65
2023/12/21 06:37:27;;;;;;;0.32;0.32;;;;;;;;;;5076061;28;20668;-65
2023/12/21 06:39:55;;;;;;;0.30;0.30;;;;;;;;;;5075607;28;20490;-65
2023/12/21 06:42:24;;;;;;;0.30;0.30;;;;;;;;;;5076533;28;20204;-65
2023/12/21 06:44:52;;;;;;;0.30;0.30;;;;;;;;;;5076164;28;20204;-65
2023/12/21 06:47:20;;;;;;;0.22;0.20;;;;;;;;;;5075634;28;20617;-65
2023/12/21 06:49:47;;;;;;;0.30;0.30;;;;;;;;;;5076452;28;20227;-65
2023/12/21 06:52:15;;;;;;;0.20;0.20;;;;;;;;;;5076894;28;20201;-65
2023/12/21 06:54:42;;;;;;;0.20;0.17;;;;;;;;;;5075842;28;20239;-65
2023/12/21 06:57:10;;;;;;;0.20;0.20;;;;;;;;;;5076611;28;20204;-65
2023/12/21 06:59:37;;;;;;;0.20;0.20;;;;;;;;;;5056609;28;20610;-66
2023/12/21 07:02:06;;;;;;;0.20;0.20;;;;;;;;;;5055745;28;20204;-65
2023/12/21 07:04:34;;;;;;;0.30;0.28;;;;;;;;;;5055964;28;20527;-65
2023/12/21 07:07:01;;;;;;;0.30;0.30;;;;;;;;;;5055937;28;20215;-66
2023/12/21 07:09:29;;;;;;;0.20;0.20;;;;;;;;;;5056006;28;20209;-65
2023/12/21 07:11:56;;;;;;;0.25;0.20;;;;;;;;;;5055681;28;20206;-65
2023/12/21 07:14:23;;;;;;;0.30;0.30;;;;;;;;;;5055657;28;20209;-66
2023/12/21 07:16:51;;;;;;;0.30;0.30;;;;;;;;;;5055608;28;20205;-65
2023/12/21 07:19:19;;;;;;;0.20;0.20;;;;;;;;;;5056045;28;20208;-65
2023/12/21 07:21:47;;;;;;;0.30;0.30;;;;;;;;;;5056470;28;20216;-66
2023/12/21 07:24:14;;;;;;;0.30;0.28;;;;;;;;;;5056336;28;20205;-65
2023/12/21 07:26:41;;;;;;;0.30;0.20;;;;;;;;;;5056365;28;20208;-65
2023/12/21 07:29:08;;;;;;;0.30;0.30;;;;;;;;;;5056190;28;20306;-66
2023/12/21 07:31:36;;;;;;;0.30;0.30;;;;;;;;;;5055782;28;20626;-66
2023/12/21 07:34:04;;;;;;;0.30;0.30;;;;;;;;;;5056025;28;20227;-65
2023/12/21 07:36:38;;;;;;;0.20;0.20;;;;;;;;;;5056116;28;20318;-66
2023/12/21 07:39:06;;;;;;;0.30;0.30;;;;;;;;;;5054799;28;20210;-66
2023/12/21 07:41:34;;;;;;;0.20;0.20;;;;;;;;;;5056470;28;20226;-66
2023/12/21 07:44:01;;;;;;;0.25;0.22;;;;;;;;;;5055404;28;20207;-65
2023/12/21 07:46:29;;;;;;;0.20;0.20;;;;;;;;;;5055979;28;20212;-65
2023/12/21 07:48:56;;;;;;;0.40;0.30;;;;;;;;;;5055017;28;20197;-65
2023/12/21 07:51:23;;;;;;;0.20;0.20;;;;;;;;;;5054787;28;20240;-66
2023/12/21 07:53:52;;;;;;;0.17;0.17;;;;;;;;;;5054886;28;20204;-65
2023/12/21 07:56:19;;;;;;;0.20;0.20;;;;;;;;;;5055185;28;20208;-66
2023/12/21 07:58:47;;;;;;;0.40;0.30;;;;;;;;;;5054996;28;20247;-66
2023/12/21 08:01:15;;;;;;;0.20;0.20;;;;;;;;;;5059269;28;20201;-65
2023/12/21 08:03:42;;;;;;;0.30;0.30;;;;;;;;;;5059610;28;20215;-66
2023/12/21 08:06:09;;;;;;;0.80;0.80;;;;;;;;;;5059052;28;20204;-66
2023/12/21 08:08:37;;;;;;;1.00;0.90;;;;;;;;;;5058883;28;20236;-66
2023/12/21 08:11:06;;;;;;;1.40;1.30;;;;;;;;;;5058305;28;20321;-65
2023/12/21 08:13:33;;;;;;;1.48;1.38;;;;;;;;;;5058880;28;20209;-65
2023/12/21 08:16:01;;;;;;;1.65;1.50;;;;;;;;;;5058551;28;20203;-65
2023/12/21 08:18:28;;;;;;;2.10;1.80;;;;;;;;;;5059062;28;20205;-65
2023/12/21 08:20:55;;;;;;;2.83;2.30;;;;;;;;;;5058591;28;20204;-65
2023/12/21 08:23:22;;;;;;;2.90;2.60;;;;;;;;;;5058564;28;20215;-66
2023/12/21 08:25:50;;;;;;;3.13;2.80;;;;;;;;;;5059489;28;20204;-65
2023/12/21 08:28:19;;;;;;;2.92;2.45;;;;;;;;;;5059063;28;20564;-65
2023/12/21 08:30:46;;;;;;;3.10;2.80;;;;;;;;;;5057907;28;20224;-65
2023/12/21 08:33:13;;;;;;;3.70;3.03;;;;;;;;;;5058864;28;20456;-65
2023/12/21 08:35:41;;;;;;;3.40;3.10;;;;;;;;;;5058600;28;20216;-66
2023/12/21 08:38:12;;;;;;;4.05;3.65;;;;;;;;;;5058353;28;20204;-66
2023/12/21 08:40:40;;;;;;;4.22;3.55;;;;;;;;;;5059151;28;20212;-65
2023/12/21 08:43:08;;;;;;;3.65;3.35;;;;;;;;;;5058232;28;20212;-65
2023/12/21 08:45:37;;;;;;;3.72;3.42;;;;;;;;;;5058301;28;20201;-65
2023/12/21 08:48:05;;;;;;;4.22;3.67;;;;;;;;;;5058374;28;20205;-65
2023/12/21 08:50:32;;;;;;;4.90;3.80;;;;;;;;;;5057717;28;20236;-65
2023/12/21 08:53:00;;;;;;;4.13;3.72;;;;;;;;;;5057908;28;20216;-66
2023/12/21 08:55:28;;;;;;;4.53;4.10;;;;;;;;;;5058442;28;20259;-65
2023/12/21 08:57:57;;;;;;;27.20;15.15;;;;;;;;;;5058172;28;20312;-65
2023/12/21 09:00:25;;;;;;;33.53;19.73;;;;;;;;;;5058013;28;20197;-66
2023/12/21 09:02:53;;;;;;;30.35;15.70;;;;;;;;;;5058308;28;20208;-65
2023/12/21 09:05:23;;;;;;;29.85;16.83;;;;;;;;;;5058088;28;20209;-65
2023/12/21 09:07:51;;;;;;;29.65;17.02;;;;;;;;;;5058791;28;20213;-65
2023/12/21 09:10:19;;;;;;;25.35;15.23;;;;;;;;;;5057166;28;20224;-65
2023/12/21 09:12:46;;;;;;;27.88;16.00;;;;;;;;;;5057743;28;20213;-66
2023/12/21 09:15:13;;;;;;;28.10;16.25;;;;;;;;;;5057354;28;20208;-66
2023/12/21 09:17:41;;;;;;;27.40;15.50;;;;;;;;;;5057727;28;20606;-66
2023/12/21 09:20:13;;;;;;;24.00;15.45;;;;;;;;;;5057688;28;20682;-66
2023/12/21 09:22:41;;;;;;;24.67;14.95;;;;;;;;;;5057706;28;20296;-66
2023/12/21 09:25:09;;;;;;;25.48;15.52;;;;;;;;;;5057862;28;20683;-66
2023/12/21 09:27:36;;;;;;;24.02;14.40;;;;;;;;;;5056558;28;20212;-65
2023/12/21 09:30:05;;;;;;;24.83;13.93;;;;;;;;;;5057807;28;20220;-66
2023/12/21 09:32:33;;;;;;;19.80;13.23;;;;;;;;;;5056968;28;20201;-65
2023/12/21 09:35:00;;;;;;;21.38;13.73;;;;;;;;;;5056792;28;20207;-66
2023/12/21 09:37:29;;;;;;;17.52;12.70;;;;;;;;;;5057098;28;20205;-65
2023/12/21 09:39:57;;;;;;;21.75;12.77;;;;;;;;;;5057576;28;20209;-65
2023/12/21 09:42:27;;;;;;;17.63;12.40;;;;;;;;;;5057505;28;20213;-66
2023/12/21 09:44:55;;;;;;;19.67;12.15;;;;;;;;;;5057612;28;20205;-65
2023/12/21 09:47:24;;;;;;;19.70;12.00;;;;;;;;;;5057258;28;20224;-66
2023/12/21 09:49:52;;;;;;;16.98;11.57;;;;;;;;;;5056908;28;20197;-66
2023/12/21 09:52:20;;;;;;;20.40;11.73;;;;;;;;;;5057308;28;20271;-65
2023/12/21 09:54:51;;;;;;;19.33;11.57;;;;;;;;;;5056433;28;20205;-65
2023/12/21 09:57:19;;;;;;;19.35;11.25;;;;;;;;;;5056883;28;20685;-66
2023/12/21 09:59:47;;;;;;;15.40;10.40;;;;;;;;;;5077328;28;20204;-66
2023/12/21 10:02:14;;;;;;;14.48;9.75;;;;;;;;;;5076922;28;20511;-65
2023/12/21 10:04:42;;;;;;;16.23;9.82;;;;;;;;;;5076397;28;20204;-66
2023/12/21 10:07:10;;;;;;;14.45;9.55;;;;;;;;;;5077612;28;20238;-65
2023/12/21 10:09:38;;;;;;;13.07;9.70;;;;;;;;;;5076386;28;20200;-66
2023/12/21 10:12:08;;;;;;;14.93;9.90;;;;;;;;;;5076119;28;20232;-66
2023/12/21 10:14:35;;;;;;;14.68;9.32;;;;;;;;;;5075892;28;20598;-65
2023/12/21 10:17:05;;;;;;;13.05;8.55;;;;;;;;;;5076634;28;20207;-65
2023/12/21 10:19:32;;;;;;;12.05;8.48;;;;;;;;;;5076608;28;20296;-66
2023/12/21 10:22:00;;;;;;;11.77;8.95;;;;;;;;;;5075730;28;20281;-66
2023/12/21 10:24:28;;;;;;;12.23;8.80;;;;;;;;;;5076415;28;20239;-65
2023/12/21 10:26:55;;;;;;;11.60;7.65;;;;;;;;;;5076903;28;20508;-65
2023/12/21 10:29:24;;;;;;;12.75;8.73;;;;;;;;;;5076282;28;20532;-66
2023/12/21 10:31:51;;;;;;;12.80;8.73;;;;;;;;;;5075538;28;20228;-66
2023/12/21 10:34:18;;;;;;;12.35;8.27;;;;;;;;;;5077269;28;20219;-65
2023/12/21 10:36:46;;;;;;;12.82;8.77;;;;;;;;;;5096002;28;20214;-66
2023/12/21 10:39:15;;;;;;;10.50;7.75;;;;;;;;;;5096280;28;20286;-65
2023/12/21 10:41:43;;;;;;;10.60;7.40;;;;;;;;;;5095538;28;20207;-66
2023/12/21 10:44:10;;;;;;;11.80;7.85;;;;;;;;;;5096479;28;20268;-66
2023/12/21 10:46:41;;;;;;;9.57;6.90;;;;;;;;;;5096366;28;20477;-65
2023/12/21 10:49:10;;;;;;;10.57;7.20;;;;;;;;;;5096025;28;20234;-65
2023/12/21 10:51:39;;;;;;;10.32;7.15;;;;;;;;;;5095470;28;20223;-65
2023/12/21 10:54:08;;;;;;;9.70;6.57;;;;;;;;;;5095828;28;20202;-66
2023/12/21 10:56:37;;;;;;;9.32;6.70;;;;;;;;;;5095961;28;20573;-66
2023/12/21 10:59:05;;;;;;;9.20;6.93;;;;;;;;;;5095656;28;20719;-66
2023/12/21 11:01:34;;;;;;;9.55;6.50;;;;;;;;;;5095131;28;20195;-65
2023/12/21 11:04:03;;;;;;;7.50;6.05;;;;;;;;;;5094860;28;20204;-66
2023/12/21 11:06:32;;;;;;;7.97;6.28;;;;;;;;;;5095319;28;20237;-65
2023/12/21 11:09:00;;;;;;;8.68;5.95;;;;;;;;;;5095601;28;20242;-65
2023/12/21 11:11:28;;;;;;;7.88;5.82;;;;;;;;;;5094474;28;20223;-66
2023/12/21 11:13:56;;;;;;;8.27;5.40;;;;;;;;;;5094867;28;20558;-65
2023/12/21 11:16:25;;;;;;;6.82;5.07;;;;;;;;;;5095347;28;20210;-65
2023/12/21 11:18:54;;;;;;;7.65;4.78;;;;;;;;;;5094910;28;20628;-65
2023/12/21 11:21:26;;;;;;;6.93;5.28;;;;;;;;;;5095626;28;20202;-65
2023/12/21 11:23:54;;;;;;;8.38;5.60;;;;;;;;;;5095283;28;20237;-65
2023/12/21 11:26:25;;;;;;;6.35;4.85;;;;;;;;;;5094782;28;20582;-66
2023/12/21 11:28:52;;;;;;;6.55;4.65;;;;;;;;;;5094077;28;20195;-65
2023/12/21 11:31:19;;;;;;;5.07;4.30;;;;;;;;;;5094626;28;20525;-65
2023/12/21 11:33:47;;;;;;;6.10;4.55;;;;;;;;;;5094536;28;20206;-66
2023/12/21 11:36:25;;;;;;;6.45;4.28;;;;;;;;;;5094292;28;20203;-65
2023/12/21 11:38:53;;;;;;;5.80;4.07;;;;;;;;;;5093288;28;20204;-66
2023/12/21 11:41:23;;;;;;;5.50;4.13;;;;;;;;;;5094641;28;20237;-65
2023/12/21 11:43:57;;;;;;;4.65;3.60;;;;;;;;;;5093617;28;20203;-66
2023/12/21 11:46:24;;;;;;;5.50;3.80;;;;;;;;;;5093545;28;20701;-65
2023/12/21 11:48:52;;;;;;;4.93;3.90;;;;;;;;;;5093664;28;20203;-65
2023/12/21 11:51:19;;;;;;;5.50;4.28;;;;;;;;;;5094417;28;20232;-65
2023/12/21 11:53:48;;;;;;;4.47;3.38;;;;;;;;;;5073832;28;20199;-65
2023/12/21 11:56:16;;;;;;;4.28;3.50;;;;;;;;;;5074162;28;20216;-66
2023/12/21 11:58:45;;;;;;;3.47;3.05;;;;;;;;;;5086158;28;20613;-65
2023/12/21 12:01:22;;;;;;;3.70;2.90;;;;;;;;;;5094458;28;20231;-65
2023/12/21 12:03:49;;;;;;;4.53;3.90;;;;;;;;;;5093845;28;20218;-65
2023/12/21 12:06:17;;;;;;;4.15;3.30;;;;;;;;;;5093862;28;20234;-65
2023/12/21 12:08:44;;;;;;;3.97;3.13;;;;;;;;;;5093326;28;20199;-67
2023/12/21 12:11:13;;;;;;;3.92;3.10;;;;;;;;;;5093503;28;20227;-65
2023/12/21 12:13:41;;;;;;;3.75;3.22;;;;;;;;;;5093873;28;20264;-65
2023/12/21 12:16:08;;;;;;;3.38;2.80;;;;;;;;;;5093244;28;20222;-65
2023/12/21 12:18:36;;;;;;;4.13;3.00;;;;;;;;;;5093048;28;20199;-65
2023/12/21 12:21:03;;;;;;;3.47;2.70;;;;;;;;;;5093565;28;20204;-65
2023/12/21 12:23:30;;;;;;;4.22;2.72;;;;;;;;;;5093023;28;20256;-65
2023/12/21 12:25:58;;;;;;;3.25;2.65;;;;;;;;;;5093531;28;20203;-65
2023/12/21 12:28:27;;;;;;;4.50;2.75;;;;;;;;;;5093515;28;20200;-65
2023/12/21 12:30:55;;;;;;;3.40;2.40;;;;;;;;;;5093718;28;20482;-65
2023/12/21 12:33:22;;;;;;;3.63;2.60;;;;;;;;;;5094313;28;20642;-65
2023/12/21 12:35:50;;;;;;;2.72;2.40;;;;;;;;;;5094483;28;20210;-65
2023/12/21 12:38:18;;;;;;;2.60;2.20;;;;;;;;;;5093957;28;20204;-65
2023/12/21 12:40:49;;;;;;;2.65;2.40;;;;;;;;;;5094100;28;20214;-65
2023/12/21 12:43:16;;;;;;;2.72;2.40;;;;;;;;;;5093565;28;20222;-65
2023/12/21 12:45:45;;;;;;;2.42;2.00;;;;;;;;;;5095152;28;20208;-65
2023/12/21 12:48:14;;;;;;;2.85;2.10;;;;;;;;;;5097801;28;20211;-65
2023/12/21 12:50:42;;;;;;;1.92;1.63;;;;;;;;;;5097606;28;20272;-65
2023/12/21 12:53:10;;;;;;;2.17;1.95;;;;;;;;;;5098194;28;20230;-65
2023/12/21 12:55:38;;;;;;;1.90;1.70;;;;;;;;;;5097496;28;20601;-65
2023/12/21 12:58:05;;;;;;;2.78;1.80;;;;;;;;;;5097488;28;20620;-65
2023/12/21 13:00:33;;;;;;;2.53;2.00;;;;;;;;;;5098080;28;20203;-65
2023/12/21 13:03:02;;;;;;;2.30;1.73;;;;;;;;;;5097570;28;20242;-65
2023/12/21 13:05:29;;;;;;;2.58;1.80;;;;;;;;;;5097763;28;20234;-65
2023/12/21 13:07:57;;;;;;;2.20;1.83;;;;;;;;;;5097276;28;20286;-65
2023/12/21 13:10:26;;;;;;;2.22;1.50;;;;;;;;;;5097461;28;20226;-65
2023/12/21 13:12:53;;;;;;;2.10;1.65;;;;;;;;;;5096313;28;20562;-65
2023/12/21 13:15:20;;;;;;;2.25;1.65;;;;;;;;;;5097365;28;20200;-65
2023/12/21 13:17:48;;;;;;;2.33;1.55;;;;;;;;;;5097785;28;20483;-65
2023/12/21 13:20:17;;;;;;;1.98;1.35;;;;;;;;;;5096511;28;20596;-65
2023/12/21 13:22:45;;;;;;;1.83;1.25;;;;;;;;;;5097237;28;20207;-65
2023/12/21 13:25:15;;;;;;;1.63;1.25;;;;;;;;;;5097553;28;20256;-65
2023/12/21 13:27:43;;;;;;;1.90;1.40;;;;;;;;;;5097486;28;20203;-65
2023/12/21 13:30:12;;;;;;;2.00;1.20;;;;;;;;;;5097302;28;20212;-65
2023/12/21 13:32:40;;;;;;;1.27;1.17;;;;;;;;;;5096990;28;20239;-65
2023/12/21 13:35:08;;;;;;;1.75;1.30;;;;;;;;;;5097533;28;20483;-65
2023/12/21 13:37:37;;;;;;;1.33;1.10;;;;;;;;;;5096957;28;20208;-65
2023/12/21 13:40:05;;;;;;;1.40;1.10;;;;;;;;;;5096804;28;20269;-65
2023/12/21 13:42:32;;;;;;;1.15;1.02;;;;;;;;;;5096536;28;20203;-65
2023/12/21 13:45:03;;;;;;;1.27;1.15;;;;;;;;;;5096947;28;20202;-66
2023/12/21 13:47:32;;;;;;;1.30;1.20;;;;;;;;;;5080906;28;20503;-67
2023/12/21 13:50:00;;;;;;;1.20;1.08;;;;;;;;;;5076899;28;20243;-67
2023/12/21 13:52:27;;;;;;;1.20;1.10;;;;;;;;;;5076423;28;20224;-64
2023/12/21 13:54:56;;;;;;;1.10;0.95;;;;;;;;;;5076898;28;20204;-64
2023/12/21 13:57:23;;;;;;;1.27;1.00;;;;;;;;;;5075949;28;20617;-67
2023/12/21 13:59:51;;;;;;;1.33;1.10;;;;;;;;;;5076062;28;20204;-67
2023/12/21 14:02:19;;;;;;;1.15;1.00;;;;;;;;;;5076243;28;20196;-65
2023/12/21 14:04:46;;;;;;;1.15;0.90;;;;;;;;;;5076890;28;20208;-65
2023/12/21 14:07:14;;;;;;;0.90;0.80;;;;;;;;;;5076262;28;20207;-65
2023/12/21 14:09:41;;;;;;;1.05;0.88;;;;;;;;;;5076578;28;20478;-67
2023/12/21 14:12:10;;;;;;;1.15;0.95;;;;;;;;;;5075299;28;20226;-65
2023/12/21 14:14:38;;;;;;;0.90;0.77;;;;;;;;;;5075078;28;20269;-65
2023/12/21 14:17:05;;;;;;;2.15;0.82;;;;;;;;;;5074878;28;20212;-65
2023/12/21 14:19:33;;;;;;;0.95;0.80;;;;;;;;;;5091944;28;20218;-65
2023/12/21 14:22:00;;;;;;;1.10;0.93;;;;;;;;;;5096388;28;20222;-65
2023/12/21 14:24:28;;;;;;;0.80;0.80;;;;;;;;;;5095623;28;20215;-65
2023/12/21 14:26:55;;;;;;;0.73;0.65;;;;;;;;;;5095378;28;20683;-66
2023/12/21 14:29:24;;;;;;;0.90;0.80;;;;;;;;;;5095202;28;20211;-65
2023/12/21 14:31:51;;;;;;;0.70;0.70;;;;;;;;;;5095344;28;20589;-67
2023/12/21 14:34:19;;;;;;;0.60;0.60;;;;;;;;;;5095665;28;20207;-66
2023/12/21 14:36:46;;;;;;;0.85;0.70;;;;;;;;;;5095769;28;20203;-67
2023/12/21 14:39:15;;;;;;;0.65;0.65;;;;;;;;;;5096327;28;20203;-67
2023/12/21 14:41:42;;;;;;;0.70;0.70;;;;;;;;;;5095788;28;20211;-67
2023/12/21 14:44:11;;;;;;;0.90;0.57;;;;;;;;;;5095166;28;20238;-67